createdAt,value
2022-12-19T00:01:38.580Z,12.90
2022-12-19T00:04:08.825Z,16.03
2022-12-19T00:06:38.010Z,17.37
2022-12-19T00:09:10.529Z,14.17
2022-12-19T00:11:56.233Z,11.90
2022-12-19T00:14:22.998Z,16.70
2022-12-19T00:16:49.680Z,14.40
2022-12-19T00:19:16.772Z,17.10
2022-12-19T00:21:43.513Z,16.80
2022-12-19T00:24:16.270Z,12.10
2022-12-19T00:26:47.807Z,20.27
2022-12-19T00:29:14.828Z,20.93
2022-12-19T00:31:41.901Z,18.33
2022-12-19T00:34:09.473Z,15.40
2022-12-19T00:36:36.346Z,21.67
2022-12-19T00:39:08.100Z,27.63
2022-12-19T00:41:41.547Z,16.40
2022-12-19T00:44:14.449Z,18.10
2022-12-19T00:46:41.517Z,14.27
2022-12-19T00:49:08.293Z,12.77
2022-12-19T00:51:37.148Z,20.17
2022-12-19T00:54:05.443Z,19.33
2022-12-19T00:57:10.712Z,21.93
2022-12-19T00:59:37.512Z,13.63
2022-12-19T01:02:04.308Z,12.10
2022-12-19T01:04:34.364Z,14.30
2022-12-19T01:07:05.815Z,20.77
2022-12-19T01:09:34.440Z,19.33
2022-12-19T01:12:23.939Z,17.20
2022-12-19T01:14:54.683Z,14.33
2022-12-19T01:17:25.535Z,16.83
2022-12-19T01:19:53.252Z,9.43
2022-12-19T01:22:20.020Z,17.60
2022-12-19T01:24:46.756Z,12.70
2022-12-19T01:27:15.357Z,14.33
2022-12-19T01:29:49.093Z,7.07
2022-12-19T01:32:19.716Z,12.43
2022-12-19T01:34:46.425Z,12.23
2022-12-19T01:37:13.201Z,9.57
2022-12-19T01:39:39.940Z,17.67
2022-12-19T01:42:23.387Z,8.93
2022-12-19T01:45:30.243Z,11.60
2022-12-19T01:48:06.330Z,13.33
2022-12-19T01:50:56.038Z,14.57
2022-12-19T01:53:47.429Z,11.07
2022-12-19T01:56:20.722Z,15.90
2022-12-19T01:58:49.576Z,13.30
2022-12-19T02:01:18.095Z,13.47
2022-12-19T02:03:46.090Z,15.77
2022-12-19T02:06:14.785Z,14.03
2022-12-19T02:08:44.680Z,14.00
2022-12-19T02:11:11.453Z,15.33
2022-12-19T02:13:39.436Z,17.13
2022-12-19T02:16:16.649Z,12.03
2022-12-19T02:18:47.891Z,10.83
2022-12-19T02:21:45.588Z,9.60
2022-12-19T02:24:48.462Z,15.30
2022-12-19T02:27:51.293Z,10.60
2022-12-19T02:30:36.869Z,13.63
2022-12-19T02:33:16.057Z,12.93
2022-12-19T02:35:56.393Z,14.97
2022-12-19T02:38:37.151Z,13.70
2022-12-19T02:41:15.703Z,14.40
2022-12-19T02:43:49.055Z,11.67
2022-12-19T02:46:27.856Z,12.73
2022-12-19T02:48:55.466Z,14.63
2022-12-19T02:51:22.264Z,15.50
2022-12-19T02:53:49.390Z,10.47
2022-12-19T02:56:48.427Z,11.27
2022-12-19T02:59:45.603Z,9.90
2022-12-19T03:02:18.631Z,12.43
2022-12-19T03:04:59.702Z,7.27
2022-12-19T03:07:58.340Z,8.82
2022-12-19T03:10:36.317Z,6.90
2022-12-19T03:13:10.761Z,4.87
2022-12-19T03:15:39.728Z,6.60
2022-12-19T03:18:08.185Z,8.37
2022-12-19T03:20:50.058Z,8.45
2022-12-19T03:23:36.025Z,7.57
2022-12-19T03:26:09.751Z,10.63
2022-12-19T03:28:43.486Z,12.70
2022-12-19T03:31:12.220Z,11.17
2022-12-19T03:33:41.984Z,7.15
2022-12-19T03:36:16.327Z,8.63
2022-12-19T03:38:45.970Z,8.45
2022-12-19T03:41:16.104Z,9.07
2022-12-19T03:43:45.453Z,10.97
2022-12-19T03:46:30.442Z,12.35
2022-12-19T03:48:57.403Z,13.50
2022-12-19T03:51:45.790Z,8.90
2022-12-19T03:54:20.890Z,12.53
2022-12-19T03:56:54.888Z,12.60
2022-12-19T03:59:46.676Z,14.40
2022-12-19T04:02:16.504Z,12.32
2022-12-19T04:04:46.956Z,10.50
2022-12-19T04:07:16.013Z,14.52
2022-12-19T04:09:45.518Z,15.90
2022-12-19T04:12:28.725Z,15.50
2022-12-19T04:14:55.535Z,22.33
2022-12-19T04:17:28.066Z,23.02
2022-12-19T04:20:05.606Z,23.13
2022-12-19T04:22:36.775Z,22.70
2022-12-19T04:25:06.891Z,38.63
2022-12-19T04:27:56.942Z,16.02
2022-12-19T04:30:23.786Z,20.00
2022-12-19T04:32:51.346Z,29.70
2022-12-19T04:35:18.429Z,20.58
2022-12-19T04:37:45.441Z,30.77
2022-12-19T04:40:12.903Z,39.65
2022-12-19T04:42:39.665Z,19.90
2022-12-19T04:45:07.045Z,26.27
2022-12-19T04:47:34.319Z,28.37
2022-12-19T04:50:01.152Z,22.55
2022-12-19T04:52:27.899Z,21.80
2022-12-19T04:54:54.691Z,18.85
2022-12-19T04:57:21.549Z,17.80
2022-12-19T04:59:48.259Z,23.23
2022-12-19T05:02:15.133Z,21.43
2022-12-19T05:04:41.906Z,19.97
2022-12-19T05:07:08.705Z,22.77
2022-12-19T05:09:36.890Z,18.33
2022-12-19T05:12:03.875Z,13.60
2022-12-19T05:14:30.795Z,13.23
2022-12-19T05:17:01.591Z,12.17
2022-12-19T05:19:29.156Z,20.10
2022-12-19T05:21:55.978Z,14.32
2022-12-19T05:24:23.116Z,6.70
2022-12-19T05:26:49.884Z,8.35
2022-12-19T05:32:20.932Z,14.73
2022-12-19T05:34:47.746Z,19.97
2022-12-19T05:37:14.669Z,13.05
2022-12-19T05:39:41.449Z,16.70
2022-12-19T05:42:12.147Z,18.70
2022-12-19T05:44:39.568Z,19.08
2022-12-19T05:47:06.463Z,17.17
2022-12-19T05:49:33.371Z,21.88
2022-12-19T05:52:00.099Z,28.27
2022-12-19T05:54:26.999Z,17.48
2022-12-19T05:56:53.722Z,29.27
2022-12-19T05:59:20.452Z,19.27
2022-12-19T06:01:47.255Z,20.15
2022-12-19T06:04:14.162Z,23.13
2022-12-19T06:06:41.549Z,24.42
2022-12-19T06:09:08.379Z,21.37
2022-12-19T06:11:35.151Z,18.88
2022-12-19T06:14:01.873Z,21.75
2022-12-19T06:16:28.646Z,27.45
2022-12-19T06:18:55.541Z,34.40
2022-12-19T06:21:23.294Z,27.73
2022-12-19T06:23:50.429Z,19.20
2022-12-19T06:26:20.142Z,20.80
2022-12-19T06:28:54.813Z,31.88
2022-12-19T06:31:23.688Z,32.58
2022-12-19T06:33:52.205Z,30.08
2022-12-19T06:36:24.805Z,23.97
2022-12-19T06:38:52.250Z,22.17
2022-12-19T06:41:38.788Z,20.27
2022-12-19T06:44:09.421Z,29.70
2022-12-19T06:46:55.351Z,22.67
2022-12-19T06:49:22.130Z,29.40
2022-12-19T06:51:49.023Z,16.92
2022-12-19T06:54:15.991Z,22.25
2022-12-19T06:56:43.602Z,25.75
2022-12-19T06:59:15.364Z,26.10
2022-12-19T07:01:49.234Z,15.30
2022-12-19T07:04:39.451Z,17.23
2022-12-19T07:07:06.320Z,14.25
2022-12-19T07:09:34.573Z,19.17
2022-12-19T07:12:02.111Z,28.08
2022-12-19T07:14:28.870Z,23.70
2022-12-19T07:16:59.391Z,21.35
2022-12-19T07:19:27.615Z,25.45
2022-12-19T07:21:55.674Z,30.27
2022-12-19T07:24:22.686Z,19.20
2022-12-19T07:26:49.603Z,18.65
2022-12-19T07:29:16.443Z,22.35
2022-12-19T07:31:43.208Z,16.23
2022-12-19T07:34:28.412Z,22.88
2022-12-19T07:36:55.210Z,15.05
2022-12-19T07:39:22.058Z,19.88
2022-12-19T07:41:48.890Z,27.38
2022-12-19T07:44:29.346Z,28.70
2022-12-19T07:46:56.111Z,24.58
2022-12-19T07:49:23.147Z,28.17
2022-12-19T07:51:49.988Z,36.65
2022-12-19T07:54:16.712Z,31.00
2022-12-19T07:56:43.485Z,19.55
2022-12-19T07:59:10.285Z,13.57
2022-12-19T08:01:37.121Z,16.95
2022-12-19T08:04:04.219Z,18.25
2022-12-19T08:06:50.874Z,17.52
2022-12-19T08:09:36.417Z,20.75
2022-12-19T08:12:03.300Z,28.25
2022-12-19T08:14:30.157Z,16.95
2022-12-19T08:17:19.841Z,18.52
2022-12-19T08:20:02.578Z,11.55
2022-12-19T08:22:31.332Z,14.73
2022-12-19T08:24:58.183Z,22.50
2022-12-19T08:27:25.637Z,20.00
2022-12-19T08:29:52.606Z,11.20
2022-12-19T08:32:21.520Z,14.82
2022-12-19T08:34:49.986Z,18.27
2022-12-19T08:37:17.553Z,19.25
2022-12-19T08:39:44.616Z,18.38
2022-12-19T08:42:11.368Z,21.27
2022-12-19T08:44:38.292Z,17.92
2022-12-19T08:47:05.374Z,24.60
2022-12-19T08:49:32.106Z,25.40
2022-12-19T08:51:58.925Z,20.60
2022-12-19T08:54:27.232Z,26.65
2022-12-19T08:56:54.016Z,28.30
2022-12-19T08:59:30.326Z,20.90
2022-12-19T09:02:02.258Z,23.95
2022-12-19T09:05:58.292Z,24.73
2022-12-19T09:07:16.976Z,12.23
2022-12-19T09:10:03.402Z,24.63
2022-12-19T09:12:30.175Z,27.42
2022-12-19T09:14:56.859Z,20.27
2022-12-19T09:22:53.274Z,19.95
2022-12-19T09:25:58.057Z,12.68
2022-12-19T09:28:27.732Z,20.90
2022-12-19T09:30:59.971Z,21.05
2022-12-19T09:33:28.395Z,17.73
2022-12-19T09:35:56.817Z,9.73
2022-12-19T09:38:44.493Z,12.70
2022-12-19T09:41:14.084Z,12.13
2022-12-19T09:44:01.991Z,13.50
2022-12-19T09:47:09.955Z,13.68
2022-12-19T09:50:14.814Z,19.00
2022-12-19T09:53:06.493Z,12.30
2022-12-19T09:55:41.110Z,11.73
2022-12-19T09:58:35.197Z,13.80
2022-12-19T10:01:08.132Z,31.45
2022-12-19T10:04:12.429Z,11.40
2022-12-19T10:07:18.187Z,27.02
2022-12-19T10:12:36.705Z,15.27
2022-12-19T10:13:13.523Z,12.38
2022-12-19T10:18:57.361Z,18.55
2022-12-19T10:22:15.826Z,11.00
2022-12-19T10:28:00.518Z,14.32
2022-12-19T10:30:32.498Z,11.68
2022-12-19T10:36:02.142Z,7.50
2022-12-19T10:38:51.746Z,11.20
2022-12-19T10:41:28.436Z,14.32
2022-12-19T10:44:08.371Z,10.43
2022-12-19T10:46:53.139Z,13.35
2022-12-19T10:49:22.639Z,13.45
2022-12-19T10:52:04.612Z,9.90
2022-12-19T10:54:41.037Z,10.95
2022-12-19T10:57:18.689Z,5.50
2022-12-19T11:06:00.497Z,4.85
2022-12-19T11:08:32.275Z,13.88
2022-12-19T11:19:28.646Z,12.68
2022-12-19T11:23:28.388Z,19.90
2022-12-19T11:29:26.877Z,13.38
2022-12-19T11:29:41.738Z,15.43
2022-12-19T11:30:06.588Z,13.80
2022-12-19T11:30:26.145Z,8.18
2022-12-19T11:32:20.608Z,22.40
2022-12-19T11:34:22.624Z,9.68
2022-12-19T11:37:09.752Z,17.27
2022-12-19T11:39:51.466Z,19.42
2022-12-19T11:48:50.837Z,17.45
2022-12-19T11:51:43.781Z,18.98
2022-12-19T11:54:29.965Z,10.93
2022-12-19T11:56:57.890Z,15.45
2022-12-19T11:59:44.280Z,14.73
2022-12-19T12:02:32.493Z,15.48
2022-12-19T12:06:00.357Z,17.92
2022-12-19T12:10:35.929Z,18.33
2022-12-19T12:22:17.407Z,14.13
2022-12-19T12:26:41.324Z,23.52
2022-12-19T12:31:07.949Z,27.33
2022-12-19T12:31:43.658Z,21.85
2022-12-19T12:31:49.436Z,18.23
2022-12-19T12:31:58.265Z,22.50
2022-12-19T12:35:43.570Z,20.33
2022-12-19T12:40:45.813Z,19.95
2022-12-19T12:43:31.161Z,20.58
2022-12-19T12:45:58.212Z,30.50
2022-12-19T12:48:31.246Z,22.95
2022-12-19T12:51:00.649Z,23.23
2022-12-19T13:00:24.968Z,26.83
2022-12-19T13:03:16.045Z,20.73
2022-12-19T13:05:49.063Z,20.20
2022-12-19T13:08:45.619Z,24.25
2022-12-19T13:11:49.475Z,28.80
2022-12-19T13:14:36.221Z,30.23
2022-12-19T13:17:11.331Z,23.38
2022-12-19T13:20:18.706Z,33.38
2022-12-19T13:23:03.097Z,27.58
2022-12-19T13:25:36.756Z,20.58
2022-12-19T13:28:03.523Z,25.02
2022-12-19T13:31:21.367Z,18.60
2022-12-19T13:33:53.547Z,18.85
2022-12-19T13:40:00.346Z,24.63
2022-12-19T13:40:11.281Z,29.23
2022-12-19T13:43:13.614Z,29.92
2022-12-19T13:46:05.509Z,24.63
2022-12-19T13:48:53.983Z,22.17
2022-12-19T13:51:20.769Z,28.67
2022-12-19T13:53:59.077Z,25.45
2022-12-19T13:56:30.681Z,21.58
2022-12-19T13:59:16.123Z,24.63
2022-12-19T14:02:21.105Z,20.75
2022-12-19T14:04:48.418Z,25.92
2022-12-19T14:07:37.036Z,26.17
2022-12-19T14:11:38.307Z,25.65
2022-12-19T14:13:49.095Z,21.00
2022-12-19T14:16:40.196Z,26.85
2022-12-19T14:19:31.032Z,28.55
2022-12-19T14:22:25.171Z,25.45
2022-12-19T14:25:10.028Z,43.47
2022-12-19T14:28:29.396Z,22.85
2022-12-19T14:34:46.817Z,31.42
2022-12-19T14:37:31.553Z,36.08
2022-12-19T14:41:08.632Z,26.70
2022-12-19T14:44:00.404Z,28.73
2022-12-19T14:54:09.339Z,27.70
2022-12-19T14:54:16.485Z,32.92
2022-12-19T14:54:34.716Z,20.42
2022-12-19T14:56:04.170Z,27.40
2022-12-19T14:58:53.315Z,28.45
2022-12-19T15:01:50.939Z,26.63
2022-12-19T15:04:52.826Z,27.10
2022-12-19T15:07:16.694Z,29.60
2022-12-19T15:11:03.268Z,25.35
2022-12-19T15:14:53.290Z,27.48
2022-12-19T15:19:16.317Z,29.20
2022-12-19T15:21:43.089Z,27.00
2022-12-19T15:26:54.835Z,21.73
2022-12-19T15:29:22.436Z,20.45
2022-12-19T15:32:27.127Z,27.75
2022-12-19T15:35:32.135Z,22.45
2022-12-19T15:37:59.192Z,22.13
2022-12-19T15:40:25.972Z,20.08
2022-12-19T15:42:55.234Z,25.13
2022-12-19T15:46:19.528Z,24.02
2022-12-19T15:49:08.607Z,21.80
2022-12-19T15:51:54.503Z,25.20
2022-12-19T15:54:49.737Z,26.73
2022-12-19T15:57:55.802Z,21.75
2022-12-19T16:01:05.868Z,18.23
2022-12-19T16:03:34.490Z,23.83
2022-12-19T16:06:57.900Z,20.35
2022-12-19T16:10:03.822Z,25.17
2022-12-19T16:12:56.642Z,26.67
2022-12-19T16:15:30.939Z,26.83
2022-12-19T16:17:59.157Z,27.73
2022-12-19T16:23:50.579Z,26.25
2022-12-19T16:26:53.081Z,19.45
2022-12-19T16:29:27.279Z,20.55
2022-12-19T16:31:55.174Z,25.70
2022-12-19T16:34:24.062Z,25.27
2022-12-19T16:36:51.215Z,25.50
2022-12-19T16:39:37.513Z,25.67
2022-12-19T16:42:23.511Z,27.42
2022-12-19T16:44:50.323Z,21.80
2022-12-19T16:47:18.029Z,31.42
2022-12-19T16:49:45.172Z,28.45
2022-12-19T16:52:30.392Z,24.45
2022-12-19T16:54:57.192Z,22.90
2022-12-19T16:57:24.095Z,26.52
2022-12-19T17:06:38.279Z,21.13
2022-12-19T17:10:02.211Z,32.13
2022-12-19T17:12:29.190Z,19.20
2022-12-19T17:14:56.089Z,28.40
2022-12-19T17:20:14.886Z,23.27
2022-12-19T17:23:00.162Z,27.58
2022-12-19T17:31:24.323Z,36.65
2022-12-19T17:34:21.815Z,28.00
2022-12-19T17:36:48.663Z,33.58
2022-12-19T17:39:24.359Z,24.00
2022-12-19T17:42:18.603Z,34.33
2022-12-19T17:45:04.842Z,22.85
2022-12-19T17:50:40.713Z,28.55
2022-12-19T17:53:14.041Z,34.72
2022-12-19T18:01:32.989Z,29.33
2022-12-19T18:04:21.152Z,14.75
2022-12-19T18:06:49.354Z,27.70
2022-12-19T18:09:23.981Z,23.77
2022-12-19T18:11:52.819Z,20.48
2022-12-19T18:14:20.065Z,17.65
2022-12-19T18:16:48.411Z,23.73
2022-12-19T18:19:20.697Z,16.95
2022-12-19T18:21:47.964Z,13.40
2022-12-19T18:24:52.396Z,12.80
2022-12-19T18:27:38.499Z,10.07
2022-12-19T18:37:13.521Z,8.02
2022-12-19T18:39:58.923Z,11.65
2022-12-19T18:42:44.992Z,12.60
2022-12-19T18:45:40.062Z,11.60
2022-12-19T18:48:18.375Z,10.93
2022-12-19T18:51:42.274Z,7.35
2022-12-19T18:54:47.438Z,9.80
2022-12-19T18:57:33.147Z,9.13
2022-12-19T19:00:39.271Z,10.02
2022-12-19T19:04:03.278Z,8.40
2022-12-19T19:07:28.043Z,5.53
2022-12-19T19:10:33.323Z,9.07
2022-12-19T19:13:21.265Z,3.92
2022-12-19T19:16:45.190Z,5.72
2022-12-19T19:20:09.155Z,5.00
2022-12-19T19:22:56.153Z,5.55
2022-12-19T19:28:26.606Z,2.72
2022-12-19T19:33:47.890Z,4.68
2022-12-19T19:36:38.306Z,1.90
2022-12-19T19:39:05.256Z,4.20
2022-12-19T19:41:34.263Z,1.73
2022-12-19T19:44:01.441Z,5.35
2022-12-19T19:46:28.272Z,6.20
2022-12-19T19:49:15.723Z,2.80
2022-12-19T19:52:03.081Z,2.95
2022-12-19T19:54:49.775Z,1.67
2022-12-19T19:57:16.753Z,2.75
2022-12-19T20:03:09.942Z,1.45
2022-12-19T20:05:37.560Z,1.02
2022-12-19T20:08:42.701Z,1.88
2022-12-19T20:11:10.687Z,1.30
2022-12-19T20:13:38.708Z,2.10
2022-12-19T20:16:11.362Z,0.70
2022-12-19T20:18:57.523Z,0.65
2022-12-19T20:25:26.562Z,1.02
2022-12-19T20:28:12.144Z,1.00
2022-12-19T20:30:38.915Z,1.00
2022-12-19T20:33:05.673Z,1.15
2022-12-19T20:35:32.481Z,0.17
2022-12-19T20:37:59.249Z,1.35
2022-12-19T20:41:05.047Z,0.52
2022-12-19T20:43:32.546Z,1.65
2022-12-19T20:49:18.933Z,0.75
2022-12-19T20:51:47.740Z,0.43
2022-12-19T20:54:15.891Z,1.10
2022-12-19T20:56:43.068Z,0.95
2022-12-19T20:59:28.383Z,1.50
2022-12-19T21:02:52.903Z,0.85
2022-12-19T21:06:36.138Z,1.45
2022-12-19T21:11:47.957Z,0.20
2022-12-19T21:14:14.877Z,0.50
2022-12-19T21:16:41.742Z,0.80
2022-12-19T21:19:08.760Z,0.60
2022-12-19T21:21:35.684Z,0.32
2022-12-19T21:24:02.468Z,0.82
2022-12-19T21:32:19.212Z,1.85
2022-12-19T21:34:46.566Z,0.10
2022-12-19T21:40:36.662Z,0.75
2022-12-19T21:43:22.101Z,1.00
2022-12-19T21:45:48.943Z,0.22
2022-12-19T21:48:36.149Z,1.03
2022-12-19T21:54:09.593Z,0.30
2022-12-19T21:56:41.690Z,0.63
2022-12-19T21:59:16.712Z,0.17
2022-12-19T22:02:03.758Z,0.90
2022-12-19T22:04:31.457Z,1.55
2022-12-19T22:07:17.356Z,0.77
2022-12-19T22:10:23.321Z,1.50
2022-12-19T22:13:09.584Z,0.50
2022-12-19T22:15:36.974Z,2.13
2022-12-19T22:18:03.855Z,0.30
2022-12-19T22:21:10.715Z,0.70
2022-12-19T22:23:37.620Z,0.67
2022-12-19T22:26:16.336Z,2.97
2022-12-19T22:29:28.958Z,1.33
2022-12-19T22:32:14.758Z,2.50
2022-12-19T22:38:04.960Z,2.43
2022-12-19T22:41:09.522Z,2.33
2022-12-19T22:43:37.269Z,2.80
2022-12-19T22:46:22.066Z,1.17
2022-12-19T22:48:50.556Z,2.37
2022-12-19T22:51:18.825Z,1.83
2022-12-19T22:57:09.007Z,2.63
2022-12-19T22:59:35.803Z,1.53
2022-12-19T23:02:02.751Z,3.93
2022-12-19T23:05:07.561Z,0.87
2022-12-19T23:07:35.840Z,1.03
2022-12-19T23:10:03.560Z,0.63
2022-12-19T23:12:30.448Z,1.13
2022-12-19T23:14:57.288Z,2.33
2022-12-19T23:17:24.086Z,0.93
2022-12-19T23:19:50.815Z,2.30
2022-12-19T23:22:36.151Z,1.00
2022-12-19T23:25:03.128Z,2.20
2022-12-19T23:28:07.618Z,4.20
2022-12-19T23:30:35.447Z,1.10
2022-12-19T23:33:02.452Z,3.03
2022-12-19T23:35:33.785Z,2.67
2022-12-19T23:38:00.551Z,2.97
2022-12-19T23:40:27.301Z,4.33
2022-12-19T23:42:54.286Z,3.83
2022-12-19T23:45:21.791Z,6.97
2022-12-19T23:47:48.622Z,7.23
2022-12-19T23:50:15.651Z,9.10
2022-12-19T23:52:44.528Z,4.73
2022-12-19T23:55:12.186Z,1.00
2022-12-19T23:57:39.091Z,3.70
